Latest Weather Observations for Mount Read

IDT60801

Issued at 11:02 pm EDT Monday 26 January 2015 (issued every 30 minutes, with the page automatically refreshed every 10 minutes)

About weather observations | Map of weather stations | Latest weather observations for TAS | Other Formats
Station Details ID: 097085 Name: MOUNT READ Lat: -41.84 Lon: 145.54 Height: 1119.5 m
Data from the previous 72 hours. | See also: Recent months at Mount Read
Date/Time
EDT
Temp
°C
App
Temp
°C
Dew
Point
Rel
Hum
%
Delta-T
°C
Wind Press
QNH
hPa
Press
MSL
hPa
Rain
since 9 am
mm
Dir
 
Spd
km/h
Gust
km/h
Spd
kts
Gust
kts
26/11:00pm 2.6 -2.2 2.5 99 0.0 SW 17 20 9 11 1016.7 1014.9 0.2
26/10:30pm 2.6 -1.8 2.5 99 0.0 S 15 17 8 9 1017.1 1015.3 0.2
26/10:00pm 2.6 -2.2 2.5 99 0.0 S 17 19 9 10 1017.0 1015.2 0.2
26/09:30pm 2.5 -3.7 2.4 99 0.0 SSW 24 28 13 15 1016.7 1014.9 0.2
26/09:00pm 2.5 -2.9 2.4 99 0.0 SSW 20 24 11 13 1016.3 1014.5 0.2
26/08:30pm 3.4 -1.3 3.1 98 0.1 SSW 17 22 9 12 1016.3 1014.5 0.2
26/08:00pm 4.2 -1.0 2.7 90 0.7 SSW 19 24 10 13 1015.9 1014.1 0.2
26/07:30pm 5.1 -0.7 2.5 83 1.1 SSW 22 28 12 15 1015.8 1014.0 0.2
26/07:00pm 4.5 -2.5 1.7 82 1.2 SW 28 33 15 18 1015.6 1013.7 0.2
26/06:30pm 5.0 -1.7 1.3 77 1.6 SW 26 32 14 17 1015.4 1013.6 0.2
26/06:00pm 5.5 -0.7 2.2 79 1.4 SSW 24 32 13 17 1015.3 1013.5 0.2
26/05:30pm 5.8 0.5 2.1 77 1.6 SW 19 28 10 15 1015.6 1013.7 0.2
26/05:00pm 5.8 0.6 2.3 78 1.5 WSW 19 28 10 15 1015.6 1013.7 0.2
26/04:30pm 6.0 0.6 2.5 78 1.5 SSW 20 30 11 16 1015.6 1013.7 0.2
26/04:00pm 6.8 2.2 3.8 81 1.4 SW 17 26 9 14 1015.7 1013.9 0.2
26/03:30pm 5.8 0.9 5.1 95 0.3 WSW 20 32 11 17 1015.8 1014.0 0.2
26/03:00pm 6.1 2.3 5.8 98 0.1 SW 15 24 8 13 1015.7 1013.9 0.2
26/02:30pm 5.9 1.3 5.8 99 0.0 SW 19 26 10 14 1015.4 1013.6 0.2
26/02:00pm 5.2 0.3 5.1 99 0.0 SSW 20 30 11 16 1015.4 1013.6 0.2
26/01:30pm 4.7 -1.1 4.6 99 0.0 SW 24 33 13 18 1015.4 1013.6 0.2
26/01:00pm 4.2 -1.7 4.1 99 0.0 SW 24 35 13 19 1015.2 1013.4 0.2
26/12:30pm 4.0 -0.9 3.9 99 0.0 WSW 19 28 10 15 1015.2 1013.4 0.2
26/12:00pm 4.6 -0.2 4.5 99 0.0 WSW 19 26 10 14 1015.0 1013.2 0.0
26/11:30am 4.2 -0.9 4.1 99 0.0 WSW 20 30 11 16 1015.0 1013.2 0.0
26/11:00am 4.1 -1.8 4.0 99 0.0 WSW 24 33 13 18 1014.8 1012.9 0.0
26/10:30am 3.9 -2.4 3.8 99 0.0 WSW 26 33 14 18 1014.2 1012.4 0.0
26/10:00am 4.1 -2.2 4.0 99 0.0 SW 26 37 14 20 1013.9 1012.0 0.0
26/09:30am 3.5 -2.5 3.4 99 0.0 SW 24 32 13 17 1013.7 1011.8 0.0
26/09:00am 3.2 -3.6 3.1 99 0.0 WSW 28 35 15 19 1013.1 1011.2 27.6
26/08:30am 2.9 -4.7 2.8 99 0.0 WSW 32 44 17 24 1012.5 1010.7 27.6
26/08:00am 2.6 -5.1 2.5 99 0.0 SW 32 43 17 23 1012.1 1010.2 27.6
26/07:30am 2.7 -4.2 2.6 99 0.0 SW 28 41 15 22 1011.4 1009.5 27.2
26/07:00am 2.4 -5.9 2.3 99 0.0 SW 35 48 19 26 1010.9 1008.9 27.2
26/06:30am 2.4 -3.0 2.3 99 0.0 SW 20 30 11 16 1010.5 1008.6 25.8
26/06:00am 2.3 -5.4 2.2 99 0.0 SW 32 46 17 25 1010.0 1008.0 24.6
26/05:30am 2.0 -7.1 1.9 99 0.0 WSW 39 50 21 27 1009.4 1007.5 24.2
26/05:00am 2.2 -5.7 2.1 99 0.0 SW 33 43 18 23 1009.0 1007.0 24.0
26/04:30am 2.1 -7.7 2.0 99 0.0 SW 43 52 23 28 1008.5 1006.5 24.0
26/04:00am 2.3 -6.7 2.2 99 0.0 SW 39 50 21 27 1008.5 1006.5 24.0
26/03:47am 2.1 -7.0 2.0 99 0.0 WSW 39 57 21 31 1008.3 1006.3 24.0
26/03:30am 1.7 -7.1 1.6 99 0.0 WSW 37 54 20 29 1008.4 1006.4 23.6
26/03:27am 1.9 -6.5 1.8 99 0.0 WSW 35 54 19 29 1008.3 1006.3 23.4
26/03:00am 2.4 -5.9 2.3 99 0.0 SW 35 50 19 27 1008.1 1006.1 23.2
26/02:32am 2.3 -6.0 2.2 99 0.0 SW 35 54 19 29 1007.7 1005.7 22.8
26/02:30am 2.5 -5.8 2.4 99 0.0 SW 35 46 19 25 1007.7 1005.7 22.8
26/02:00am 2.2 -6.5 2.1 99 0.0 SW 37 52 20 28 1007.7 1005.7 22.8
26/01:32am 2.2 -5.2 2.1 99 0.0 WSW 30 54 16 29 1007.6 1005.6 22.0
26/01:30am 2.4 -4.5 2.3 99 0.0 WSW 28 39 15 21 1007.7 1005.7 21.8
26/01:00am 2.5 -6.1 2.4 99 0.0 WSW 37 56 20 30 1007.6 1005.6 21.6
26/12:56am 2.5 -5.4 2.4 99 0.0 WSW 33 56 18 30 1007.5 1005.5 21.6
26/12:17am 1.8 -7.3 1.7 99 0.0 WSW 39 56 21 30 1007.4 1005.4 21.6
26/12:00am 1.8 -6.6 1.7 99 0.0 W 35 48 19 26 1007.2 1005.2 20.8
 
Date/Time
EDT
Temp
°C
App
Temp
°C
Dew
Point
Rel
Hum
%
Delta-T
°C
Wind Press
QNH
hPa
Press
MSL
hPa
Rain
since 9 am
mm
Dir
 
Spd
km/h
Gust
km/h
Spd
kts
Gust
kts
25/11:30pm 2.4 -5.9 2.3 99 0.0 W 35 48 19 26 1007.2 1005.2 18.8
25/11:12pm 2.3 -5.4 2.2 99 0.0 W 32 50 17 27 1007.0 1004.9 18.8
25/11:00pm 1.9 -6.8 1.8 99 0.0 W 37 48 20 26 1007.0 1004.9 18.8
25/10:38pm 1.9 -5.9 1.8 99 0.0 W 32 54 17 29 1006.6 1004.6 17.8
25/10:30pm 2.2 -5.2 2.1 99 0.0 W 30 39 16 21 1006.7 1004.7 17.2
25/10:00pm 1.8 -4.5 1.7 99 0.0 WNW 24 33 13 18 1006.5 1004.5 17.2
25/09:30pm 1.5 -6.9 1.4 99 0.0 W 35 43 19 23 1006.0 1003.9 16.8
25/09:00pm 1.8 -6.6 1.7 99 0.0 WSW 35 48 19 26 1005.9 1003.8 16.8
25/08:33pm 1.8 -7.7 1.7 99 0.0 WSW 41 59 22 32 1005.2 1003.1 16.8
25/08:30pm 1.9 -7.6 1.8 99 0.0 WSW 41 57 22 31 1005.3 1003.2 16.6
25/08:01pm 1.8 -6.9 1.7 99 0.0 W 37 57 20 31 1004.5 1002.4 16.4
25/08:00pm 1.9 -6.5 1.8 99 0.0 W 35 54 19 29 1004.6 1002.6 16.4
25/07:56pm 1.9 -6.1 1.8 99 0.0 W 33 54 18 29 1004.7 1002.7 16.4
25/07:30pm 0.4 -9.3 0.3 99 0.0 W 41 54 22 29 1004.3 1002.2 15.4
25/07:22pm 1.4 -6.7 1.3 99 0.0 W 33 52 18 28 1004.2 1002.1 15.0
25/07:00pm 2.2 -6.1 2.1 99 0.0 W 35 50 19 27 1004.1 1002.0 14.6
25/06:35pm 1.8 -8.1 1.7 99 0.0 W 43 61 23 33 1003.4 1001.3 14.6
25/06:30pm 1.7 -8.4 1.6 99 0.0 W 44 63 24 34 1003.2 1001.1 14.4
25/06:08pm 0.8 -8.5 0.7 99 0.0 W 39 61 21 33 1002.8 1000.7 13.2
25/06:00pm 2.2 -6.5 2.1 99 0.0 W 37 50 20 27 1003.0 1000.8 13.0
25/05:34pm 2.7 -7.2 2.6 99 0.0 W 44 65 24 35 1002.8 1000.7 12.0
25/05:30pm 2.5 -8.6 2.4 99 0.0 W 50 65 27 35 1002.5 1000.4 12.0
25/05:12pm 1.3 -5.8 1.2 99 0.0 WNW 28 59 15 32 1002.5 1000.4 11.2
25/05:00pm 2.5 -5.4 2.4 99 0.0 W 33 46 18 25 1002.7 1000.6 11.0
25/04:30pm 3.1 -6.8 3.0 99 0.0 W 44 65 24 35 1002.4 1000.3 11.0
25/04:00pm 2.3 -5.6 2.2 99 0.0 W 33 65 18 35 1001.8 999.7 10.8
25/03:59pm 2.4 -5.3 2.3 99 0.0 W 32 65 17 35 1001.8 999.7 10.8
25/03:30pm 3.8 -3.3 3.7 99 0.0 WNW 30 56 16 30 1001.9 999.8 9.8
25/03:11pm 3.1 -3.7 3.0 99 0.0 WNW 28 57 15 31 1001.7 999.6 9.8
25/03:00pm 3.8 -3.3 3.7 99 0.0 W 30 46 16 25 1001.8 999.7 9.6
25/02:30pm 3.6 -2.7 3.5 99 0.0 NW 26 56 14 30 1001.6 999.5 9.6
25/02:13pm 2.7 -4.9 2.6 99 0.0 WNW 32 50 17 27 1001.5 999.4 9.6
25/02:00pm 2.5 -4.8 2.4 99 0.0 WNW 30 43 16 23 1001.7 999.6 9.6
25/01:30pm 1.4 -7.4 1.3 99 0.0 W 37 50 20 27 1001.4 999.2 9.4
25/01:04pm 1.2 -5.9 1.1 99 0.0 WNW 28 50 15 27 1000.9 998.8 7.0
25/01:00pm 1.7 -5.0 1.6 99 0.0 WNW 26 44 14 24 1001.1 998.9 6.4
25/12:49pm 3.0 -3.8 2.9 99 0.0 WNW 28 46 15 25 1001.1 998.9 4.8
25/12:30pm 3.1 -4.1 3.0 99 0.0 WNW 30 41 16 22 1000.8 998.7 4.6
25/12:12pm 1.8 -6.6 1.7 99 0.0 WNW 35 54 19 29 1000.8 998.7 4.2
25/12:00pm 2.2 -3.3 2.1 99 0.0 WNW 20 37 11 20 1000.9 998.8 3.4
25/11:30am 3.6 -3.5 3.5 99 0.0 W 30 44 16 24 1000.7 998.6 1.8
25/11:00am 2.4 -5.3 2.3 99 0.0 W 32 48 17 26 1000.4 998.2 1.4
25/10:30am 4.3 -1.9 4.2 99 0.0 W 26 37 14 20 1000.5 998.3 0.6
25/10:00am 4.2 -2.0 4.1 99 0.0 WNW 26 39 14 21 1000.3 998.1 0.2
25/09:53am 4.2 -2.4 4.1 99 0.0 WNW 28 43 15 23 1000.3 998.1 0.2
25/09:30am 3.1 -1.6 3.0 99 0.0 WNW 17 26 9 14 1000.3 998.1 0.2
25/09:00am 3.5 -2.1 3.4 99 0.0 W 22 35 12 19 1000.3 998.1 23.8
25/08:30am 3.3 -4.2 3.2 99 0.0 W 32 44 17 24 1000.2 998.0 23.8
25/08:00am 2.6 -4.3 2.5 99 0.0 W 28 43 15 23 999.8 997.6 23.6
25/07:30am 3.3 -3.5 3.2 99 0.0 W 28 39 15 21 999.7 997.5 21.6
25/07:00am 3.5 -4.0 3.4 99 0.0 WSW 32 43 17 23 998.9 996.7 21.6
25/06:30am 3.7 -3.0 3.6 99 0.0 W 28 43 15 23 998.9 996.7 21.6
25/06:00am 3.7 -1.5 3.6 99 0.0 WSW 20 30 11 16 999.2 997.0 20.6
25/05:30am 4.3 -2.3 4.2 99 0.0 WSW 28 35 15 19 998.8 996.6 20.4
25/05:00am 4.3 -3.2 4.2 99 0.0 W 33 44 18 24 999.2 997.0 19.8
25/04:53am 4.4 -3.5 4.3 99 0.0 W 35 56 19 30 999.3 997.1 19.8
25/04:30am 5.1 -2.7 5.0 99 0.0 WSW 35 54 19 29 998.9 996.7 18.8
25/04:00am 6.0 -0.3 5.9 99 0.0 W 28 39 15 21 998.8 996.6 16.0
25/03:30am 5.9 -0.4 5.8 99 0.0 W 28 41 15 22 998.9 996.7 14.2
25/03:00am 6.7 1.4 6.6 99 0.0 WNW 24 39 13 21 999.3 997.1 12.0
25/02:30am 6.7 0.2 6.6 99 0.0 WNW 30 39 16 21 999.4 997.2 9.8
25/02:00am 7.1 0.3 7.0 99 0.0 WNW 32 44 17 24 999.7 997.5 7.8
25/01:30am 7.6 0.9 7.5 99 0.1 N 32 44 17 24 999.5 997.3 4.0
25/01:00am 7.5 0.6 7.4 99 0.1 N 33 46 18 25 999.5 997.3 0.0
25/12:30am 7.5 -0.1 7.4 99 0.0 N 37 52 20 28 1000.1 997.9 0.0
25/12:00am 7.4 0.5 7.3 99 0.1 N 33 50 18 27 1000.3 998.1 0.0
 
Date/Time
EDT
Temp
°C
App
Temp
°C
Dew
Point
Rel
Hum
%
Delta-T
°C
Wind Press
QNH
hPa
Press
MSL
hPa
Rain
since 9 am
mm
Dir
 
Spd
km/h
Gust
km/h
Spd
kts
Gust
kts
24/11:38pm 7.6 0.8 7.5 99 0.1 N 33 56 18 30 1000.7 998.6 0.0
24/11:30pm 7.6 0.9 7.5 99 0.1 N 32 41 17 22 1000.9 998.8 0.0
24/11:00pm 7.6 0.4 7.5 99 0.1 N 35 48 19 26 1001.3 999.1 0.0
24/10:30pm 7.7 0.9 7.6 99 0.1 N 33 50 18 27 1001.5 999.4 0.0
24/10:00pm 7.7 0.9 7.6 99 0.1 N 33 46 18 25 1001.5 999.4 0.0
24/09:30pm 7.7 0.9 7.6 99 0.1 N 33 46 18 25 1001.5 999.4 0.0
24/09:00pm 7.7 0.9 7.6 99 0.1 N 33 48 18 26 1001.4 999.2 0.0
24/08:30pm 7.8 1.0 7.7 99 0.1 N 33 43 18 23 1001.4 999.2 0.0
24/08:00pm 7.8 1.2 7.7 99 0.1 N 32 41 17 22 1001.5 999.4 0.0
24/07:30pm 8.0 1.4 7.9 99 0.1 N 32 43 17 23 1001.5 999.4 0.0
24/07:13pm 8.1 1.4 8.0 99 0.1 N 33 52 18 28 1001.3 999.1 0.0
24/07:00pm 8.1 1.0 8.0 99 0.1 N 35 48 19 26 1001.3 999.1 0.0
24/06:30pm 8.3 1.2 8.2 99 0.1 NNW 35 48 19 26 1001.3 999.1 0.0
24/06:00pm 8.2 1.7 8.1 99 0.1 NNW 32 48 17 26 1001.5 999.4 0.0
24/05:30pm 9.3 4.4 8.4 94 0.5 NNW 24 32 13 17 1001.9 999.8 0.0
24/05:00pm 9.4 4.4 8.0 91 0.7 NNW 24 35 13 19 1002.4 1000.3 0.0
24/04:30pm 9.5 3.6 7.4 87 1.1 NNW 28 44 15 24 1002.5 1000.4 0.0
24/04:00pm 10.2 4.3 7.3 82 1.5 NNW 28 39 15 21 1002.8 1000.7 0.0
24/03:30pm 10.0 3.6 7.1 82 1.5 NNW 30 46 16 25 1003.2 1001.1 0.0
24/03:24pm 10.3 4.3 7.0 80 1.7 NNW 28 46 15 25 1003.3 1001.2 0.0
24/03:00pm 10.4 3.9 6.4 76 2.0 NNW 30 43 16 23 1003.4 1001.3 0.0
24/02:30pm 10.8 3.9 6.6 75 2.1 NNW 32 46 17 25 1003.6 1001.5 0.0
24/02:18pm 10.7 3.7 6.1 73 2.3 NNW 32 50 17 27 1003.5 1001.4 0.0
24/02:00pm 10.3 4.1 6.3 76 2.0 N 28 41 15 22 1003.5 1001.4 0.0
24/01:30pm 10.7 3.9 7.0 78 1.9 N 32 48 17 26 1003.5 1001.4 0.0
24/01:00pm 9.4 4.1 6.7 83 1.4 N 24 37 13 20 1004.3 1002.2 0.0
24/12:30pm 8.5 2.2 5.6 82 1.4 N 28 37 15 20 1004.2 1002.1 0.0
24/12:00pm 8.1 2.5 5.6 84 1.2 N 24 32 13 17 1004.5 1002.4 0.0
24/11:30am 7.5 1.9 5.5 87 1.0 N 24 33 13 18 1004.8 1002.8 0.0
24/11:00am 6.9 2.1 5.5 91 0.7 N 20 30 11 16 1005.1 1003.0 0.0
24/10:30am 6.6 1.4 5.6 93 0.5 N 22 32 12 17 1005.3 1003.2 0.0
24/10:00am 6.6 1.8 5.6 93 0.5 N 20 30 11 16 1005.4 1003.4 0.0
24/09:30am 6.2 1.3 5.3 94 0.4 N 20 30 11 16 1005.3 1003.2 0.0
24/09:00am 4.9 -1.6 4.8 99 0.0 N 28 35 15 19 1005.2 1003.1 3.0
24/08:30am 4.4 -2.2 4.1 98 0.1 N 28 33 15 18 1005.1 1003.0 3.0
24/08:00am 4.0 -2.1 3.0 93 0.4 N 24 28 13 15 1004.7 1002.7 3.0
24/07:30am 3.7 -1.7 2.4 91 0.6 N 20 24 11 13 1004.6 1002.6 3.0
24/07:00am 3.8 -1.4 2.3 90 0.6 N 19 22 10 12 1004.4 1002.3 3.0
24/06:30am 3.4 -2.0 2.4 93 0.4 NNW 20 22 11 12 1004.5 1002.4 3.0
24/06:00am 3.7 -0.9 1.6 86 0.9 NNW 15 19 8 10 1004.6 1002.6 3.0
24/05:30am 3.3 -1.6 2.1 92 0.5 NNW 17 20 9 11 1004.8 1002.8 3.0
24/05:00am 3.8 -1.0 0.5 79 1.4 NNW 15 19 8 10 1004.7 1002.7 3.0
24/04:30am 4.8 0.2 -1.4 64 2.5 N 13 19 7 10 1004.6 1002.6 3.0
24/04:00am 4.0 0.3 0.2 76 1.6 N 9 13 5 7 1005.2 1003.1 3.0
24/03:30am 4.2 0.9 0.0 74 1.7 N 7 11 4 6 1005.4 1003.4 3.0
24/03:00am 4.3 2.0 0.1 74 1.7 NNW 2 6 1 3 1006.0 1003.9 3.0
24/02:30am 3.8 0.0 1.8 87 0.8 W 11 15 6 8 1006.1 1004.0 3.0
24/02:00am 4.8 1.2 -2.1 61 2.7 WNW 7 15 4 8 1006.6 1004.6 3.0
24/01:30am 4.8 0.8 -2.1 61 2.7 NW 9 13 5 7 1007.0 1004.9 3.0
24/01:00am 5.9 1.4 -7.3 38 4.6 NNE 9 13 5 7 1007.2 1005.2 3.0
24/12:30am 4.4 1.7 0.4 75 1.6 NE 4 6 2 3 1007.5 1005.5 3.0
24/12:00am 3.8 0.8 0.7 80 1.3 E 6 11 3 6 1007.3 1005.3 3.0
 
Date/Time
EDT
Temp
°C
App
Temp
°C
Dew
Point
Rel
Hum
%
Delta-T
°C
Wind Press
QNH
hPa
Press
MSL
hPa
Rain
since 9 am
mm
Dir
 
Spd
km/h
Gust
km/h
Spd
kts
Gust
kts
23/11:30pm 3.6 0.4 0.7 81 1.2 SSE 7 9 4 5 1007.5 1005.5 3.0

Other Formats:

Comma delimited format used in spreadsheet applications
http://www.bom.gov.au/fwo/IDT60801/IDT60801.95952.axf

JavaScript Object Notation format (JSON) in row-major order
http://www.bom.gov.au/fwo/IDT60801/IDT60801.95952.json